Aviation Digital Data Service (ADDS)

Output produced by METARs form (1236 UTC 25 June 2019)
found at http://www.aviationweather.gov/metar/data/
 
METAR text: RJEB 250700Z 09004KT 9999 FEW004 14/12 Q1012
Conditions at: RJEB (MONBETSU AIRPORT, JP) observed 0700 UTC 25 June 2019
Temperature: 14.0°C (57°F)
Dewpoint: 12.0°C (54°F) [RH = 88%]
Pressure (altimeter): 29.88 inches Hg (1012.0 mb)
Winds: from the E (90 degrees) at 5 MPH (4 knots; 2.1 m/s)
Visibility: 6 or more miles (10+ km)
Ceiling: at least 12,000 feet AGL
Clouds: few clouds at 400 feet AGL
Weather: no significant weather observed at this time

METAR text: RJEB 250600Z 10005KT 070V130 9999 FEW003 14/11 Q1012
Conditions at: RJEB (MONBETSU AIRPORT, JP) observed 0600 UTC 25 June 2019
Temperature: 14.0°C (57°F)
Dewpoint: 11.0°C (52°F) [RH = 82%]
Pressure (altimeter): 29.88 inches Hg (1012.0 mb)
Winds: from the E (100 degrees) at 6 MPH (5 knots; 2.6 m/s)
Visibility: 6 or more miles (10+ km)
Ceiling: at least 12,000 feet AGL
Clouds: few clouds at 300 feet AGL
Weather: no significant weather observed at this time

METAR text: RJEB 250533Z 07005KT 020V120 9999 FEW002 SCT003 13/12 Q1012 RMK 2ST002 4ST003 A2991
Conditions at: RJEB (MONBETSU AIRPORT, JP) observed 0533 UTC 25 June 2019
Temperature: 13.0°C (55°F)
Dewpoint: 12.0°C (54°F) [RH = 94%]
Pressure (altimeter): 29.88 inches Hg (1012.0 mb)
Winds: from the ENE (70 degrees) at 6 MPH (5 knots; 2.6 m/s)
Visibility: 6 or more miles (10+ km)
Ceiling: at least 12,000 feet AGL
Clouds: few clouds at 200 feet AGL
scattered clouds at 300 feet AGL
Weather: no significant weather observed at this time

METAR text: RJEB 250518Z 07005KT 030V110 5000 R32/1400VP2000N BR SCT002 BKN003 13/12 Q1012 RMK 4ST002 7ST003 A2991
Conditions at: RJEB (MONBETSU AIRPORT, JP) observed 0518 UTC 25 June 2019
Temperature: 13.0°C (55°F)
Dewpoint: 12.0°C (54°F) [RH = 94%]
Pressure (altimeter): 29.88 inches Hg (1012.0 mb)
Winds: from the ENE (70 degrees) at 6 MPH (5 knots; 2.6 m/s)
Visibility: 3 miles ( 5 km)
Ceiling: 300 feet AGL
Clouds: scattered clouds at 200 feet AGL
broken clouds at 300 feet AGL
Weather: BR  (mist)

METAR text: RJEB 250500Z 06005KT 010V120 3200 BR FEW001 BKN002 BKN003 13/11 Q1013
Conditions at: RJEB (MONBETSU AIRPORT, JP) observed 0500 UTC 25 June 2019
Temperature: 13.0°C (55°F)
Dewpoint: 11.0°C (52°F) [RH = 88%]
Pressure (altimeter): 29.91 inches Hg (1013.0 mb)
Winds: from the ENE (60 degrees) at 6 MPH (5 knots; 2.6 m/s)
Visibility: 1.99 miles (3.20 km)
Ceiling: 200 feet AGL
Clouds: few clouds at 100 feet AGL
broken clouds at 200 feet AGL
broken clouds at 300 feet AGL
Weather: BR  (mist)

METAR text: RJEB 250444Z 06006KT 020V100 2300 R32/0650VP2000D BR FEW001 BKN002 BKN003 13/11 Q1013 RMK 1ST001 5ST002 7ST003 A2991
Conditions at: RJEB (MONBETSU AIRPORT, JP) observed 0444 UTC 25 June 2019
Temperature: 13.0°C (55°F)
Dewpoint: 11.0°C (52°F) [RH = 88%]
Pressure (altimeter): 29.91 inches Hg (1013.0 mb)
Winds: from the ENE (60 degrees) at 7 MPH (6 knots; 3.1 m/s)
Visibility: 1.43 miles (2.30 km)
Ceiling: 200 feet AGL
Clouds: few clouds at 100 feet AGL
broken clouds at 200 feet AGL
broken clouds at 300 feet AGL
Weather: BR  (mist)

METAR text: RJEB 250439Z 07006KT 020V100 3100 BR FEW001 BKN002 BKN003 14/12 Q1013 RMK 1ST001 5ST002 6ST003 A2991
Conditions at: RJEB (MONBETSU AIRPORT, JP) observed 0439 UTC 25 June 2019
Temperature: 14.0°C (57°F)
Dewpoint: 12.0°C (54°F) [RH = 88%]
Pressure (altimeter): 29.91 inches Hg (1013.0 mb)
Winds: from the ENE (70 degrees) at 7 MPH (6 knots; 3.1 m/s)
Visibility: 1.93 miles (3.11 km)
Ceiling: 200 feet AGL
Clouds: few clouds at 100 feet AGL
broken clouds at 200 feet AGL
broken clouds at 300 feet AGL
Weather: BR  (mist)

METAR text: RJEB 250421Z 07006KT 030V120 4900 R32/P2000N PRFG BR FEW002 SCT003 14/12 Q1013 RMK 2ST002 4ST003 A2991 1500W-N FG W-N
Conditions at: RJEB (MONBETSU AIRPORT, JP) observed 0421 UTC 25 June 2019
Temperature: 14.0°C (57°F)
Dewpoint: 12.0°C (54°F) [RH = 88%]
Pressure (altimeter): 29.91 inches Hg (1013.0 mb)
Winds: from the ENE (70 degrees) at 7 MPH (6 knots; 3.1 m/s)
Visibility: 3 miles ( 5 km)
Ceiling: at least 12,000 feet AGL
Clouds: few clouds at 200 feet AGL
scattered clouds at 300 feet AGL
Weather: PRFG BR  (partial fog, mist)

METAR text: RJEB 250400Z 08006KT 020V120 8000 FEW002 SCT003 14/12 Q1013
Conditions at: RJEB (MONBETSU AIRPORT, JP) observed 0400 UTC 25 June 2019
Temperature: 14.0°C (57°F)
Dewpoint: 12.0°C (54°F) [RH = 88%]
Pressure (altimeter): 29.91 inches Hg (1013.0 mb)
Winds: from the E (80 degrees) at 7 MPH (6 knots; 3.1 m/s)
Visibility: 5 miles ( 8 km)
Ceiling: at least 12,000 feet AGL
Clouds: few clouds at 200 feet AGL
scattered clouds at 300 feet AGL
Weather: no significant weather observed at this time

METAR text: RJEB 250324Z 08007KT 040V120 4500 BCFG BR SCT002 BKN003 14/12 Q1013 RMK 3ST002 5ST003 A2992
Conditions at: RJEB (MONBETSU AIRPORT, JP) observed 0324 UTC 25 June 2019
Temperature: 14.0°C (57°F)
Dewpoint: 12.0°C (54°F) [RH = 88%]
Pressure (altimeter): 29.91 inches Hg (1013.0 mb)
Winds: from the E (80 degrees) at 8 MPH (7 knots; 3.6 m/s)
Visibility: 2.80 miles (4.51 km)
Ceiling: 300 feet AGL
Clouds: scattered clouds at 200 feet AGL
broken clouds at 300 feet AGL
Weather: BCFG BR  (patches of fog, mist)

METAR text: RJEB 250321Z 08008KT 040V110 4900 BCFG BR FEW002 SCT003 14/12 Q1013 RMK 2ST002 4ST003 A2992
Conditions at: RJEB (MONBETSU AIRPORT, JP) observed 0321 UTC 25 June 2019
Temperature: 14.0°C (57°F)
Dewpoint: 12.0°C (54°F) [RH = 88%]
Pressure (altimeter): 29.91 inches Hg (1013.0 mb)
Winds: from the E (80 degrees) at 9 MPH (8 knots; 4.1 m/s)
Visibility: 3 miles ( 5 km)
Ceiling: at least 12,000 feet AGL
Clouds: few clouds at 200 feet AGL
scattered clouds at 300 feet AGL
Weather: BCFG BR  (patches of fog, mist)

METAR text: RJEB 250300Z 07008KT 9999 PRFG FEW002 SCT003 14/12 Q1013
Conditions at: RJEB (MONBETSU AIRPORT, JP) observed 0300 UTC 25 June 2019
Temperature: 14.0°C (57°F)
Dewpoint: 12.0°C (54°F) [RH = 88%]
Pressure (altimeter): 29.91 inches Hg (1013.0 mb)
Winds: from the ENE (70 degrees) at 9 MPH (8 knots; 4.1 m/s)
Visibility: 6 or more miles (10+ km)
Ceiling: at least 12,000 feet AGL
Clouds: few clouds at 200 feet AGL
scattered clouds at 300 feet AGL
Weather: PRFG  (partial fog)

METAR text: RJEB 250230Z 09007KT 060V120 5000 BR FEW002 SCT003 14/13 Q1013 RMK 1ST002 3ST003 A2993
Conditions at: RJEB (MONBETSU AIRPORT, JP) observed 0230 UTC 25 June 2019
Temperature: 14.0°C (57°F)
Dewpoint: 13.0°C (55°F) [RH = 94%]
Pressure (altimeter): 29.91 inches Hg (1013.0 mb)
Winds: from the E (90 degrees) at 8 MPH (7 knots; 3.6 m/s)
Visibility: 3 miles ( 5 km)
Ceiling: at least 12,000 feet AGL
Clouds: few clouds at 200 feet AGL
scattered clouds at 300 feet AGL
Weather: BR  (mist)

METAR text: RJEB 250200Z 09008KT 1600 R32/1600VP2000N BR SCT002 BKN003 14/12 Q1013
Conditions at: RJEB (MONBETSU AIRPORT, JP) observed 0200 UTC 25 June 2019
Temperature: 14.0°C (57°F)
Dewpoint: 12.0°C (54°F) [RH = 88%]
Pressure (altimeter): 29.91 inches Hg (1013.0 mb)
Winds: from the E (90 degrees) at 9 MPH (8 knots; 4.1 m/s)
Visibility: 0.99 miles (1.59 km)
Ceiling: 300 feet AGL
Clouds: scattered clouds at 200 feet AGL
broken clouds at 300 feet AGL
Weather: BR  (mist)

METAR text: RJEB 250143Z 08007KT 030V100 1200 R32/0900VP2000N BR BKN002 BKN003 13/12 Q1014 RMK 5ST002 7ST003 A2995
Conditions at: RJEB (MONBETSU AIRPORT, JP) observed 0143 UTC 25 June 2019
Temperature: 13.0°C (55°F)
Dewpoint: 12.0°C (54°F) [RH = 94%]
Pressure (altimeter): 29.94 inches Hg (1014.0 mb)
Winds: from the E (80 degrees) at 8 MPH (7 knots; 3.6 m/s)
Visibility: 0.75 miles (1.21 km)
Ceiling: 200 feet AGL
Clouds: broken clouds at 200 feet AGL
broken clouds at 300 feet AGL
Weather: BR  (mist)

METAR text: RJEB 250131Z 08007KT 050V120 1400 R32/1000VP2000U BR SCT002 BKN003 13/12 Q1014 RMK 4ST002 7ST003 A2995
Conditions at: RJEB (MONBETSU AIRPORT, JP) observed 0131 UTC 25 June 2019
Temperature: 13.0°C (55°F)
Dewpoint: 12.0°C (54°F) [RH = 94%]
Pressure (altimeter): 29.94 inches Hg (1014.0 mb)
Winds: from the E (80 degrees) at 8 MPH (7 knots; 3.6 m/s)
Visibility: 0.87 miles (1.40 km)
Ceiling: 300 feet AGL
Clouds: scattered clouds at 200 feet AGL
broken clouds at 300 feet AGL
Weather: BR  (mist)

METAR text: RJEB 250130Z 08007KT 050V120 1400 R32/1000VP2000U BR SCT002 BKN003 13/11 Q1014 RMK 4ST002 7ST003 A2995
Conditions at: RJEB (MONBETSU AIRPORT, JP) observed 0130 UTC 25 June 2019
Temperature: 13.0°C (55°F)
Dewpoint: 11.0°C (52°F) [RH = 88%]
Pressure (altimeter): 29.94 inches Hg (1014.0 mb)
Winds: from the E (80 degrees) at 8 MPH (7 knots; 3.6 m/s)
Visibility: 0.87 miles (1.40 km)
Ceiling: 300 feet AGL
Clouds: scattered clouds at 200 feet AGL
broken clouds at 300 feet AGL
Weather: BR  (mist)

METAR text: RJEB 250129Z 08007KT 050V120 1400 R32/1000VP2000N BR SCT002 BKN003 13/11 Q1014 RMK 4ST002 7ST003 A2995
Conditions at: RJEB (MONBETSU AIRPORT, JP) observed 0129 UTC 25 June 2019
Temperature: 13.0°C (55°F)
Dewpoint: 11.0°C (52°F) [RH = 88%]
Pressure (altimeter): 29.94 inches Hg (1014.0 mb)
Winds: from the E (80 degrees) at 8 MPH (7 knots; 3.6 m/s)
Visibility: 0.87 miles (1.40 km)
Ceiling: 300 feet AGL
Clouds: scattered clouds at 200 feet AGL
broken clouds at 300 feet AGL
Weather: BR  (mist)

METAR text: RJEB 250128Z 08007KT 050V120 1400 R32/1000VP2000U BR SCT002 BKN003 13/12 Q1014 RMK 4ST002 7ST003 A2995
Conditions at: RJEB (MONBETSU AIRPORT, JP) observed 0128 UTC 25 June 2019
Temperature: 13.0°C (55°F)
Dewpoint: 12.0°C (54°F) [RH = 94%]
Pressure (altimeter): 29.94 inches Hg (1014.0 mb)
Winds: from the E (80 degrees) at 8 MPH (7 knots; 3.6 m/s)
Visibility: 0.87 miles (1.40 km)
Ceiling: 300 feet AGL
Clouds: scattered clouds at 200 feet AGL
broken clouds at 300 feet AGL
Weather: BR  (mist)

METAR text: RJEB 250126Z 08007KT 050V120 1400 R32/1000VP2000N BR SCT002 BKN003 13/12 Q1014 RMK 4ST002 7ST003 A2995
Conditions at: RJEB (MONBETSU AIRPORT, JP) observed 0126 UTC 25 June 2019
Temperature: 13.0°C (55°F)
Dewpoint: 12.0°C (54°F) [RH = 94%]
Pressure (altimeter): 29.94 inches Hg (1014.0 mb)
Winds: from the E (80 degrees) at 8 MPH (7 knots; 3.6 m/s)
Visibility: 0.87 miles (1.40 km)
Ceiling: 300 feet AGL
Clouds: scattered clouds at 200 feet AGL
broken clouds at 300 feet AGL
Weather: BR  (mist)

METAR text: RJEB 250125Z 09007KT 050V120 1400 R32/1000VP2000D BR SCT002 BKN003 13/12 Q1014 RMK 3ST002 7ST003 A2995
Conditions at: RJEB (MONBETSU AIRPORT, JP) observed 0125 UTC 25 June 2019
Temperature: 13.0°C (55°F)
Dewpoint: 12.0°C (54°F) [RH = 94%]
Pressure (altimeter): 29.94 inches Hg (1014.0 mb)
Winds: from the E (90 degrees) at 8 MPH (7 knots; 3.6 m/s)
Visibility: 0.87 miles (1.40 km)
Ceiling: 300 feet AGL
Clouds: scattered clouds at 200 feet AGL
broken clouds at 300 feet AGL
Weather: BR  (mist)

METAR text: RJEB 250122Z 09007KT 060V120 1400 R32/1000VP2000D BR SCT002 BKN003 13/11 Q1014 RMK 3ST002 7ST003 A2995
Conditions at: RJEB (MONBETSU AIRPORT, JP) observed 0122 UTC 25 June 2019
Temperature: 13.0°C (55°F)
Dewpoint: 11.0°C (52°F) [RH = 88%]
Pressure (altimeter): 29.94 inches Hg (1014.0 mb)
Winds: from the E (90 degrees) at 8 MPH (7 knots; 3.6 m/s)
Visibility: 0.87 miles (1.40 km)
Ceiling: 300 feet AGL
Clouds: scattered clouds at 200 feet AGL
broken clouds at 300 feet AGL
Weather: BR  (mist)

METAR text: RJEB 250120Z 09006KT 1500 R32/1300VP2000D BR SCT002 BKN003 13/12 Q1014 RMK 3ST002 7ST003 A2995
Conditions at: RJEB (MONBETSU AIRPORT, JP) observed 0120 UTC 25 June 2019
Temperature: 13.0°C (55°F)
Dewpoint: 12.0°C (54°F) [RH = 94%]
Pressure (altimeter): 29.94 inches Hg (1014.0 mb)
Winds: from the E (90 degrees) at 7 MPH (6 knots; 3.1 m/s)
Visibility: 0.93 miles (1.50 km)
Ceiling: 300 feet AGL
Clouds: scattered clouds at 200 feet AGL
broken clouds at 300 feet AGL
Weather: BR  (mist)

METAR text: RJEB 250117Z 09006KT 1600 R32/1600VP2000N BR SCT002 BKN003 13/12 Q1014 RMK 3ST002 7ST003 A2995
Conditions at: RJEB (MONBETSU AIRPORT, JP) observed 0117 UTC 25 June 2019
Temperature: 13.0°C (55°F)
Dewpoint: 12.0°C (54°F) [RH = 94%]
Pressure (altimeter): 29.94 inches Hg (1014.0 mb)
Winds: from the E (90 degrees) at 7 MPH (6 knots; 3.1 m/s)
Visibility: 0.99 miles (1.59 km)
Ceiling: 300 feet AGL
Clouds: scattered clouds at 200 feet AGL
broken clouds at 300 feet AGL
Weather: BR  (mist)

METAR text: RJEB 250110Z 09006KT 060V130 1500 R32/1000VP2000U BR VV003 13/12 Q1014 RMK A2995
Conditions at: RJEB (MONBETSU AIRPORT, JP) observed 0110 UTC 25 June 2019
Temperature: 13.0°C (55°F)
Dewpoint: 12.0°C (54°F) [RH = 94%]
Pressure (altimeter): 29.94 inches Hg (1014.0 mb)
Winds: from the E (90 degrees) at 7 MPH (6 knots; 3.1 m/s)
Visibility: 0.93 miles (1.50 km)
Ceiling: indefinite ceiling with vertical visibility of 300 feet AGL
Clouds: obscured sky
Weather: BR  (mist)

METAR text: RJEB 250109Z 09006KT 060V130 1200 R32/1000VP2000U BR VV002 13/12 Q1014 RMK A2995
Conditions at: RJEB (MONBETSU AIRPORT, JP) observed 0109 UTC 25 June 2019
Temperature: 13.0°C (55°F)
Dewpoint: 12.0°C (54°F) [RH = 94%]
Pressure (altimeter): 29.94 inches Hg (1014.0 mb)
Winds: from the E (90 degrees) at 7 MPH (6 knots; 3.1 m/s)
Visibility: 0.75 miles (1.21 km)
Ceiling: indefinite ceiling with vertical visibility of 200 feet AGL
Clouds: obscured sky
Weather: BR  (mist)

METAR text: RJEB 250108Z 10006KT 070V140 1200 R32/1000VP2000U BR VV002 13/12 Q1014 RMK A2995
Conditions at: RJEB (MONBETSU AIRPORT, JP) observed 0108 UTC 25 June 2019
Temperature: 13.0°C (55°F)
Dewpoint: 12.0°C (54°F) [RH = 94%]
Pressure (altimeter): 29.94 inches Hg (1014.0 mb)
Winds: from the E (100 degrees) at 7 MPH (6 knots; 3.1 m/s)
Visibility: 0.75 miles (1.21 km)
Ceiling: indefinite ceiling with vertical visibility of 200 feet AGL
Clouds: obscured sky
Weather: BR  (mist)

METAR text: RJEB 250107Z 10005KT 050V140 1000 R32/1000VP2000U BR VV002 13/12 Q1014 RMK A2995
Conditions at: RJEB (MONBETSU AIRPORT, JP) observed 0107 UTC 25 June 2019
Temperature: 13.0°C (55°F)
Dewpoint: 12.0°C (54°F) [RH = 94%]
Pressure (altimeter): 29.94 inches Hg (1014.0 mb)
Winds: from the E (100 degrees) at 6 MPH (5 knots; 2.6 m/s)
Visibility: 0.62 miles (1.00 km)
Ceiling: indefinite ceiling with vertical visibility of 200 feet AGL
Clouds: obscured sky
Weather: BR  (mist)

METAR text: RJEB 250105Z 10005KT 050V140 0900 R32/1000VP2000N FG VV002 12/12 Q1014 RMK A2995
Conditions at: RJEB (MONBETSU AIRPORT, JP) observed 0105 UTC 25 June 2019
Temperature: 12.0°C (54°F)
Dewpoint: 12.0°C (54°F) [RH = 100%]
Pressure (altimeter): 29.94 inches Hg (1014.0 mb)
Winds: from the E (100 degrees) at 6 MPH (5 knots; 2.6 m/s)
Visibility: 0.56 miles (0.90 km)
Ceiling: indefinite ceiling with vertical visibility of 200 feet AGL
Clouds: obscured sky
Weather: FG  (fog)

METAR text: RJEB 250100Z 10005KT 050V140 0900 R32/0600VP2000N FG VV002 12/11 Q1014
Conditions at: RJEB (MONBETSU AIRPORT, JP) observed 0100 UTC 25 June 2019
Temperature: 12.0°C (54°F)
Dewpoint: 11.0°C (52°F) [RH = 94%]
Pressure (altimeter): 29.94 inches Hg (1014.0 mb)
Winds: from the E (100 degrees) at 6 MPH (5 knots; 2.6 m/s)
Visibility: 0.56 miles (0.90 km)
Ceiling: indefinite ceiling with vertical visibility of 200 feet AGL
Clouds: obscured sky
Weather: FG  (fog)

METAR text: RJEB 250044Z 08005KT 030V110 0800 R32/0550VP2000D FG VV002 12/11 Q1014 RMK A2996
Conditions at: RJEB (MONBETSU AIRPORT, JP) observed 0044 UTC 25 June 2019
Temperature: 12.0°C (54°F)
Dewpoint: 11.0°C (52°F) [RH = 94%]
Pressure (altimeter): 29.94 inches Hg (1014.0 mb)
Winds: from the E (80 degrees) at 6 MPH (5 knots; 2.6 m/s)
Visibility: 0.50 miles (0.80 km)
Ceiling: indefinite ceiling with vertical visibility of 200 feet AGL
Clouds: obscured sky
Weather: FG  (fog)

METAR text: RJEB 250042Z 08005KT 030V120 0800 R32/0600VP2000D FG VV002 12/11 Q1014 RMK A2996
Conditions at: RJEB (MONBETSU AIRPORT, JP) observed 0042 UTC 25 June 2019
Temperature: 12.0°C (54°F)
Dewpoint: 11.0°C (52°F) [RH = 94%]
Pressure (altimeter): 29.94 inches Hg (1014.0 mb)
Winds: from the E (80 degrees) at 6 MPH (5 knots; 2.6 m/s)
Visibility: 0.50 miles (0.80 km)
Ceiling: indefinite ceiling with vertical visibility of 200 feet AGL
Clouds: obscured sky
Weather: FG  (fog)

METAR text: RJEB 250038Z 07004KT 030V120 0800 R32/0400VP2000U FG VV002 12/11 Q1014 RMK A2997
Conditions at: RJEB (MONBETSU AIRPORT, JP) observed 0038 UTC 25 June 2019
Temperature: 12.0°C (54°F)
Dewpoint: 11.0°C (52°F) [RH = 94%]
Pressure (altimeter): 29.94 inches Hg (1014.0 mb)
Winds: from the ENE (70 degrees) at 5 MPH (4 knots; 2.1 m/s)
Visibility: 0.50 miles (0.80 km)
Ceiling: indefinite ceiling with vertical visibility of 200 feet AGL
Clouds: obscured sky
Weather: FG  (fog)

METAR text: RJEB 250036Z 07004KT 030V120 0800 R32/0400VP2000U FG VV002 12/11 Q1014 RMK A2997
Conditions at: RJEB (MONBETSU AIRPORT, JP) observed 0036 UTC 25 June 2019
Temperature: 12.0°C (54°F)
Dewpoint: 11.0°C (52°F) [RH = 94%]
Pressure (altimeter): 29.94 inches Hg (1014.0 mb)
Winds: from the ENE (70 degrees) at 5 MPH (4 knots; 2.1 m/s)
Visibility: 0.50 miles (0.80 km)
Ceiling: indefinite ceiling with vertical visibility of 200 feet AGL
Clouds: obscured sky
Weather: FG  (fog)

METAR text: RJEB 250031Z 07004KT 030V120 0600 R32/0400V1800D FG VV002 12/11 Q1014 RMK A2997
Conditions at: RJEB (MONBETSU AIRPORT, JP) observed 0031 UTC 25 June 2019
Temperature: 12.0°C (54°F)
Dewpoint: 11.0°C (52°F) [RH = 94%]
Pressure (altimeter): 29.94 inches Hg (1014.0 mb)
Winds: from the ENE (70 degrees) at 5 MPH (4 knots; 2.1 m/s)
Visibility: 0.37 miles (0.60 km)
Ceiling: indefinite ceiling with vertical visibility of 200 feet AGL
Clouds: obscured sky
Weather: FG  (fog)

METAR text: RJEB 250028Z 07004KT 020V120 0600 R32/0500V1800U FG VV002 12/11 Q1014 RMK A2997
Conditions at: RJEB (MONBETSU AIRPORT, JP) observed 0028 UTC 25 June 2019
Temperature: 12.0°C (54°F)
Dewpoint: 11.0°C (52°F) [RH = 94%]
Pressure (altimeter): 29.94 inches Hg (1014.0 mb)
Winds: from the ENE (70 degrees) at 5 MPH (4 knots; 2.1 m/s)
Visibility: 0.37 miles (0.60 km)
Ceiling: indefinite ceiling with vertical visibility of 200 feet AGL
Clouds: obscured sky
Weather: FG  (fog)

METAR text: RJEB 250022Z 08004KT 020V120 0600 R32/0500V1500D FG VV002 12/11 Q1014 RMK A2997
Conditions at: RJEB (MONBETSU AIRPORT, JP) observed 0022 UTC 25 June 2019
Temperature: 12.0°C (54°F)
Dewpoint: 11.0°C (52°F) [RH = 94%]
Pressure (altimeter): 29.94 inches Hg (1014.0 mb)
Winds: from the E (80 degrees) at 5 MPH (4 knots; 2.1 m/s)
Visibility: 0.37 miles (0.60 km)
Ceiling: indefinite ceiling with vertical visibility of 200 feet AGL
Clouds: obscured sky
Weather: FG  (fog)

METAR text: RJEB 250020Z 08004KT 030V120 0600 R32/0550V1500D FG VV002 12/11 Q1014 RMK A2997
Conditions at: RJEB (MONBETSU AIRPORT, JP) observed 0020 UTC 25 June 2019
Temperature: 12.0°C (54°F)
Dewpoint: 11.0°C (52°F) [RH = 94%]
Pressure (altimeter): 29.94 inches Hg (1014.0 mb)
Winds: from the E (80 degrees) at 5 MPH (4 knots; 2.1 m/s)
Visibility: 0.37 miles (0.60 km)
Ceiling: indefinite ceiling with vertical visibility of 200 feet AGL
Clouds: obscured sky
Weather: FG  (fog)

METAR text: RJEB 250013Z 07004KT 010V120 0600 R32/0500V1400U FG VV002 12/11 Q1014 RMK A2997
Conditions at: RJEB (MONBETSU AIRPORT, JP) observed 0013 UTC 25 June 2019
Temperature: 12.0°C (54°F)
Dewpoint: 11.0°C (52°F) [RH = 94%]
Pressure (altimeter): 29.94 inches Hg (1014.0 mb)
Winds: from the ENE (70 degrees) at 5 MPH (4 knots; 2.1 m/s)
Visibility: 0.37 miles (0.60 km)
Ceiling: indefinite ceiling with vertical visibility of 200 feet AGL
Clouds: obscured sky
Weather: FG  (fog)

METAR text: RJEB 250012Z 07004KT 010V120 0600 R32/0500V1400U FG VV002 12/11 Q1014 RMK A2997
Conditions at: RJEB (MONBETSU AIRPORT, JP) observed 0012 UTC 25 June 2019
Temperature: 12.0°C (54°F)
Dewpoint: 11.0°C (52°F) [RH = 94%]
Pressure (altimeter): 29.94 inches Hg (1014.0 mb)
Winds: from the ENE (70 degrees) at 5 MPH (4 knots; 2.1 m/s)
Visibility: 0.37 miles (0.60 km)
Ceiling: indefinite ceiling with vertical visibility of 200 feet AGL
Clouds: obscured sky
Weather: FG  (fog)

METAR text: RJEB 250011Z 07004KT 010V120 0600 R32/0450V1400U FG VV002 12/11 Q1014 RMK A2997
Conditions at: RJEB (MONBETSU AIRPORT, JP) observed 0011 UTC 25 June 2019
Temperature: 12.0°C (54°F)
Dewpoint: 11.0°C (52°F) [RH = 94%]
Pressure (altimeter): 29.94 inches Hg (1014.0 mb)
Winds: from the ENE (70 degrees) at 5 MPH (4 knots; 2.1 m/s)
Visibility: 0.37 miles (0.60 km)
Ceiling: indefinite ceiling with vertical visibility of 200 feet AGL
Clouds: obscured sky
Weather: FG  (fog)

METAR text: RJEB 250004Z 06004KT 010V100 0600 R32/0400VP2000D FG VV002 12/11 Q1015 RMK A2997
Conditions at: RJEB (MONBETSU AIRPORT, JP) observed 0004 UTC 25 June 2019
Temperature: 12.0°C (54°F)
Dewpoint: 11.0°C (52°F) [RH = 94%]
Pressure (altimeter): 29.97 inches Hg (1015.0 mb)
Winds: from the ENE (60 degrees) at 5 MPH (4 knots; 2.1 m/s)
Visibility: 0.37 miles (0.60 km)
Ceiling: indefinite ceiling with vertical visibility of 200 feet AGL
Clouds: obscured sky
Weather: FG  (fog)

METAR text: RJEB 250003Z 06004KT 010V100 0600 R32/0400VP2000D FG VV002 12/11 Q1015 RMK A2997
Conditions at: RJEB (MONBETSU AIRPORT, JP) observed 0003 UTC 25 June 2019
Temperature: 12.0°C (54°F)
Dewpoint: 11.0°C (52°F) [RH = 94%]
Pressure (altimeter): 29.97 inches Hg (1015.0 mb)
Winds: from the ENE (60 degrees) at 5 MPH (4 knots; 2.1 m/s)
Visibility: 0.37 miles (0.60 km)
Ceiling: indefinite ceiling with vertical visibility of 200 feet AGL
Clouds: obscured sky
Weather: FG  (fog)

METAR text: RJEB 250002Z 06004KT 010V100 0600 R32/0400VP2000D FG VV002 12/11 Q1015 RMK A2997
Conditions at: RJEB (MONBETSU AIRPORT, JP) observed 0002 UTC 25 June 2019
Temperature: 12.0°C (54°F)
Dewpoint: 11.0°C (52°F) [RH = 94%]
Pressure (altimeter): 29.97 inches Hg (1015.0 mb)
Winds: from the ENE (60 degrees) at 5 MPH (4 knots; 2.1 m/s)
Visibility: 0.37 miles (0.60 km)
Ceiling: indefinite ceiling with vertical visibility of 200 feet AGL
Clouds: obscured sky
Weather: FG  (fog)

METAR text: RJEB 250000Z 06004KT 010V100 0600 R32/0350VP2000U FG VV002 12/11 Q1015
Conditions at: RJEB (MONBETSU AIRPORT, JP) observed 0000 UTC 25 June 2019
Temperature: 12.0°C (54°F)
Dewpoint: 11.0°C (52°F) [RH = 94%]
Pressure (altimeter): 29.97 inches Hg (1015.0 mb)
Winds: from the ENE (60 degrees) at 5 MPH (4 knots; 2.1 m/s)
Visibility: 0.37 miles (0.60 km)
Ceiling: indefinite ceiling with vertical visibility of 200 feet AGL
Clouds: obscured sky
Weather: FG  (fog)

METAR text: RJEB 242343Z 05005KT 010V120 0700 R32/0550VP2000U FG VV002 12/11 Q1015 RMK A2997
Conditions at: RJEB (MONBETSU AIRPORT, JP) observed 2343 UTC 24 June 2019
Temperature: 12.0°C (54°F)
Dewpoint: 11.0°C (52°F) [RH = 94%]
Pressure (altimeter): 29.97 inches Hg (1015.0 mb)
Winds: from the NE (50 degrees) at 6 MPH (5 knots; 2.6 m/s)
Visibility: 0.43 miles (0.69 km)
Ceiling: indefinite ceiling with vertical visibility of 200 feet AGL
Clouds: obscured sky
Weather: FG  (fog)

METAR text: RJEB 242341Z 06005KT 010V120 0500 R32/0325VP2000U FG VV002 12/11 Q1015 RMK A2997
Conditions at: RJEB (MONBETSU AIRPORT, JP) observed 2341 UTC 24 June 2019
Temperature: 12.0°C (54°F)
Dewpoint: 11.0°C (52°F) [RH = 94%]
Pressure (altimeter): 29.97 inches Hg (1015.0 mb)
Winds: from the ENE (60 degrees) at 6 MPH (5 knots; 2.6 m/s)
Visibility: 0.31 miles (0.50 km)
Ceiling: indefinite ceiling with vertical visibility of 200 feet AGL
Clouds: obscured sky
Weather: FG  (fog)

METAR text: RJEB 240700Z 09006KT 050V110 9999 FEW014 13/11 Q1013
Conditions at: RJEB (MONBETSU AIRPORT, JP) observed 0700 UTC 24 June 2019
Temperature: 13.0°C (55°F)
Dewpoint: 11.0°C (52°F) [RH = 88%]
Pressure (altimeter): 29.91 inches Hg (1013.0 mb)
Winds: from the E (90 degrees) at 7 MPH (6 knots; 3.1 m/s)
Visibility: 6 or more miles (10+ km)
Ceiling: at least 12,000 feet AGL
Clouds: few clouds at 1400 feet AGL
Weather: no significant weather observed at this time

METAR text: RJEB 240600Z 07006KT 020V120 9999 FEW014 14/10 Q1013
Conditions at: RJEB (MONBETSU AIRPORT, JP) observed 0600 UTC 24 June 2019
Temperature: 14.0°C (57°F)
Dewpoint: 10.0°C (50°F) [RH = 77%]
Pressure (altimeter): 29.91 inches Hg (1013.0 mb)
Winds: from the ENE (70 degrees) at 7 MPH (6 knots; 3.1 m/s)
Visibility: 6 or more miles (10+ km)
Ceiling: at least 12,000 feet AGL
Clouds: few clouds at 1400 feet AGL
Weather: no significant weather observed at this time

METAR text: RJEB 240500Z 07008KT 040V110 9999 FEW010 SCT/// 14/10 Q1013
Conditions at: RJEB (MONBETSU AIRPORT, JP) observed 0500 UTC 24 June 2019
Temperature: 14.0°C (57°F)
Dewpoint: 10.0°C (50°F) [RH = 77%]
Pressure (altimeter): 29.91 inches Hg (1013.0 mb)
Winds: from the ENE (70 degrees) at 9 MPH (8 knots; 4.1 m/s)
Visibility: 6 or more miles (10+ km)
Ceiling: at least 12,000 feet AGL
Clouds: few clouds at 1000 feet AGL
Weather: no significant weather observed at this time

METAR text: RJEB 240400Z 08007KT 010V130 9999 FEW015 14/11 Q1013
Conditions at: RJEB (MONBETSU AIRPORT, JP) observed 0400 UTC 24 June 2019
Temperature: 14.0°C (57°F)
Dewpoint: 11.0°C (52°F) [RH = 82%]
Pressure (altimeter): 29.91 inches Hg (1013.0 mb)
Winds: from the E (80 degrees) at 8 MPH (7 knots; 3.6 m/s)
Visibility: 6 or more miles (10+ km)
Ceiling: at least 12,000 feet AGL
Clouds: few clouds at 1500 feet AGL
Weather: no significant weather observed at this time

METAR text: RJEB 240340Z 09006KT 050V120 9999 FEW008 SCT010 BKN011 15/12 Q1013 RMK 2ST008 4ST010 5ST011 A2993
Conditions at: RJEB (MONBETSU AIRPORT, JP) observed 0340 UTC 24 June 2019
Temperature: 15.0°C (59°F)
Dewpoint: 12.0°C (54°F) [RH = 82%]
Pressure (altimeter): 29.91 inches Hg (1013.0 mb)
Winds: from the E (90 degrees) at 7 MPH (6 knots; 3.1 m/s)
Visibility: 6 or more miles (10+ km)
Ceiling: 1100 feet AGL
Clouds: few clouds at 800 feet AGL
scattered clouds at 1000 feet AGL
broken clouds at 1100 feet AGL
Weather: no significant weather observed at this time

METAR text: RJEB 240335Z 09007KT 050V130 9999 FEW006 SCT008 BKN010 14/11 Q1013 RMK 2ST006 4ST008 6ST010 A2993
Conditions at: RJEB (MONBETSU AIRPORT, JP) observed 0335 UTC 24 June 2019
Temperature: 14.0°C (57°F)
Dewpoint: 11.0°C (52°F) [RH = 82%]
Pressure (altimeter): 29.91 inches Hg (1013.0 mb)
Winds: from the E (90 degrees) at 8 MPH (7 knots; 3.6 m/s)
Visibility: 6 or more miles (10+ km)
Ceiling: 1000 feet AGL
Clouds: few clouds at 600 feet AGL
scattered clouds at 800 feet AGL
broken clouds at 1000 feet AGL
Weather: no significant weather observed at this time

METAR text: RJEB 240325Z 10007KT 050V130 9999 FEW005 SCT006 BKN008 14/12 Q1013 RMK 2ST005 4ST006 6ST008 A2993
Conditions at: RJEB (MONBETSU AIRPORT, JP) observed 0325 UTC 24 June 2019
Temperature: 14.0°C (57°F)
Dewpoint: 12.0°C (54°F) [RH = 88%]
Pressure (altimeter): 29.91 inches Hg (1013.0 mb)
Winds: from the E (100 degrees) at 8 MPH (7 knots; 3.6 m/s)
Visibility: 6 or more miles (10+ km)
Ceiling: 800 feet AGL
Clouds: few clouds at 500 feet AGL
scattered clouds at 600 feet AGL
broken clouds at 800 feet AGL
Weather: no significant weather observed at this time

METAR text: RJEB 240318Z 09007KT 050V120 9999 FEW004 SCT005 BKN006 14/12 Q1013 RMK 2ST004 4ST005 7ST006 A2993
Conditions at: RJEB (MONBETSU AIRPORT, JP) observed 0318 UTC 24 June 2019
Temperature: 14.0°C (57°F)
Dewpoint: 12.0°C (54°F) [RH = 88%]
Pressure (altimeter): 29.91 inches Hg (1013.0 mb)
Winds: from the E (90 degrees) at 8 MPH (7 knots; 3.6 m/s)
Visibility: 6 or more miles (10+ km)
Ceiling: 600 feet AGL
Clouds: few clouds at 400 feet AGL
scattered clouds at 500 feet AGL
broken clouds at 600 feet AGL
Weather: no significant weather observed at this time

METAR text: RJEB 240313Z 09007KT 050V120 9999 FEW003 SCT004 BKN005 14/12 Q1013 RMK 2ST003 4ST004 7ST005 A2994
Conditions at: RJEB (MONBETSU AIRPORT, JP) observed 0313 UTC 24 June 2019
Temperature: 14.0°C (57°F)
Dewpoint: 12.0°C (54°F) [RH = 88%]
Pressure (altimeter): 29.91 inches Hg (1013.0 mb)
Winds: from the E (90 degrees) at 8 MPH (7 knots; 3.6 m/s)
Visibility: 6 or more miles (10+ km)
Ceiling: 500 feet AGL
Clouds: few clouds at 300 feet AGL
scattered clouds at 400 feet AGL
broken clouds at 500 feet AGL
Weather: no significant weather observed at this time

METAR text: RJEB 240307Z 10007KT 060V150 7000 FEW002 SCT003 BKN004 14/12 Q1013 RMK 1ST002 4ST003 7ST004 A2994
Conditions at: RJEB (MONBETSU AIRPORT, JP) observed 0307 UTC 24 June 2019
Temperature: 14.0°C (57°F)
Dewpoint: 12.0°C (54°F) [RH = 88%]
Pressure (altimeter): 29.91 inches Hg (1013.0 mb)
Winds: from the E (100 degrees) at 8 MPH (7 knots; 3.6 m/s)
Visibility: 4 miles ( 7 km)
Ceiling: 400 feet AGL
Clouds: few clouds at 200 feet AGL
scattered clouds at 300 feet AGL
broken clouds at 400 feet AGL
Weather: no significant weather observed at this time

METAR text: RJEB 240300Z 10007KT 060V150 5000 BR FEW002 BKN003 BKN004 14/12 Q1013
Conditions at: RJEB (MONBETSU AIRPORT, JP) observed 0300 UTC 24 June 2019
Temperature: 14.0°C (57°F)
Dewpoint: 12.0°C (54°F) [RH = 88%]
Pressure (altimeter): 29.91 inches Hg (1013.0 mb)
Winds: from the E (100 degrees) at 8 MPH (7 knots; 3.6 m/s)
Visibility: 3 miles ( 5 km)
Ceiling: 300 feet AGL
Clouds: few clouds at 200 feet AGL
broken clouds at 300 feet AGL
broken clouds at 400 feet AGL
Weather: BR  (mist)

METAR text: RJEB 240231Z 08004KT 010V140 2400 BR SCT001 BKN002 BKN003 14/12 Q1013 RMK 4ST001 5ST002 7ST003 A2993
Conditions at: RJEB (MONBETSU AIRPORT, JP) observed 0231 UTC 24 June 2019
Temperature: 14.0°C (57°F)
Dewpoint: 12.0°C (54°F) [RH = 88%]
Pressure (altimeter): 29.91 inches Hg (1013.0 mb)
Winds: from the E (80 degrees) at 5 MPH (4 knots; 2.1 m/s)
Visibility: 1.49 miles (2.40 km)
Ceiling: 200 feet AGL
Clouds: scattered clouds at 100 feet AGL
broken clouds at 200 feet AGL
broken clouds at 300 feet AGL
Weather: BR  (mist)

METAR text: RJEB 240222Z 06004KT 010V150 1600 R32/2000N BR SCT001 BKN002 BKN003 13/12 Q1013 RMK 4ST001 5ST002 7ST003 A2992
Conditions at: RJEB (MONBETSU AIRPORT, JP) observed 0222 UTC 24 June 2019
Temperature: 13.0°C (55°F)
Dewpoint: 12.0°C (54°F) [RH = 94%]
Pressure (altimeter): 29.91 inches Hg (1013.0 mb)
Winds: from the ENE (60 degrees) at 5 MPH (4 knots; 2.1 m/s)
Visibility: 0.99 miles (1.59 km)
Ceiling: 200 feet AGL
Clouds: scattered clouds at 100 feet AGL
broken clouds at 200 feet AGL
broken clouds at 300 feet AGL
Weather: BR  (mist)

METAR text: RJEB 240214Z 05004KT 340V150 1500 R32/1200VP2000U BR SCT001 BKN002 BKN003 13/12 Q1013 RMK 4ST001 5ST002 7ST003 A2993
Conditions at: RJEB (MONBETSU AIRPORT, JP) observed 0214 UTC 24 June 2019
Temperature: 13.0°C (55°F)
Dewpoint: 12.0°C (54°F) [RH = 94%]
Pressure (altimeter): 29.91 inches Hg (1013.0 mb)
Winds: from the NE (50 degrees) at 5 MPH (4 knots; 2.1 m/s)
Visibility: 0.93 miles (1.50 km)
Ceiling: 200 feet AGL
Clouds: scattered clouds at 100 feet AGL
broken clouds at 200 feet AGL
broken clouds at 300 feet AGL
Weather: BR  (mist)

METAR text: RJEB 240211Z 04004KT 340V100 1000 R32/1000VP2000U BR SCT001 BKN002 BKN003 13/12 Q1013 RMK 4ST001 5ST002 7ST003 A2993
Conditions at: RJEB (MONBETSU AIRPORT, JP) observed 0211 UTC 24 June 2019
Temperature: 13.0°C (55°F)
Dewpoint: 12.0°C (54°F) [RH = 94%]
Pressure (altimeter): 29.91 inches Hg (1013.0 mb)
Winds: from the NE (40 degrees) at 5 MPH (4 knots; 2.1 m/s)
Visibility: 0.62 miles (1.00 km)
Ceiling: 200 feet AGL
Clouds: scattered clouds at 100 feet AGL
broken clouds at 200 feet AGL
broken clouds at 300 feet AGL
Weather: BR  (mist)

METAR text: RJEB 240209Z 05004KT 340V120 0900 R32/0800VP2000U FG SCT001 BKN002 BKN003 13/12 Q1013 RMK 4ST001 5ST002 7ST003 A2993
Conditions at: RJEB (MONBETSU AIRPORT, JP) observed 0209 UTC 24 June 2019
Temperature: 13.0°C (55°F)
Dewpoint: 12.0°C (54°F) [RH = 94%]
Pressure (altimeter): 29.91 inches Hg (1013.0 mb)
Winds: from the NE (50 degrees) at 5 MPH (4 knots; 2.1 m/s)
Visibility: 0.56 miles (0.90 km)
Ceiling: 200 feet AGL
Clouds: scattered clouds at 100 feet AGL
broken clouds at 200 feet AGL
broken clouds at 300 feet AGL
Weather: FG  (fog)

METAR text: RJEB 240205Z 06004KT 020V120 0900 R32/0700VP2000N FG SCT001 BKN002 BKN003 13/12 Q1013 RMK 4ST001 5ST002 7ST003 A2993
Conditions at: RJEB (MONBETSU AIRPORT, JP) observed 0205 UTC 24 June 2019
Temperature: 13.0°C (55°F)
Dewpoint: 12.0°C (54°F) [RH = 94%]
Pressure (altimeter): 29.91 inches Hg (1013.0 mb)
Winds: from the ENE (60 degrees) at 5 MPH (4 knots; 2.1 m/s)
Visibility: 0.56 miles (0.90 km)
Ceiling: 200 feet AGL
Clouds: scattered clouds at 100 feet AGL
broken clouds at 200 feet AGL
broken clouds at 300 feet AGL
Weather: FG  (fog)

METAR text: RJEB 240202Z 06004KT 350V120 0800 R32/0650VP2000D FG SCT001 BKN002 BKN003 13/11 Q1013 RMK 4ST001 5ST002 7ST003 A2993
Conditions at: RJEB (MONBETSU AIRPORT, JP) observed 0202 UTC 24 June 2019
Temperature: 13.0°C (55°F)
Dewpoint: 11.0°C (52°F) [RH = 88%]
Pressure (altimeter): 29.91 inches Hg (1013.0 mb)
Winds: from the ENE (60 degrees) at 5 MPH (4 knots; 2.1 m/s)
Visibility: 0.50 miles (0.80 km)
Ceiling: 200 feet AGL
Clouds: scattered clouds at 100 feet AGL
broken clouds at 200 feet AGL
broken clouds at 300 feet AGL
Weather: FG  (fog)

METAR text: RJEB 240200Z 06004KT 350V120 0900 R32/0650VP2000U FG SCT002 BKN003 BKN004 13/11 Q1013
Conditions at: RJEB (MONBETSU AIRPORT, JP) observed 0200 UTC 24 June 2019
Temperature: 13.0°C (55°F)
Dewpoint: 11.0°C (52°F) [RH = 88%]
Pressure (altimeter): 29.91 inches Hg (1013.0 mb)
Winds: from the ENE (60 degrees) at 5 MPH (4 knots; 2.1 m/s)
Visibility: 0.56 miles (0.90 km)
Ceiling: 300 feet AGL
Clouds: scattered clouds at 200 feet AGL
broken clouds at 300 feet AGL
broken clouds at 400 feet AGL
Weather: FG  (fog)

METAR text: RJEB 240143Z 03005KT 350V100 4900 BCFG BR FEW004 SCT006 BKN010 13/11 Q1013 RMK 2ST004 4ST006 5ST010 A2992 FG NE-SW
Conditions at: RJEB (MONBETSU AIRPORT, JP) observed 0143 UTC 24 June 2019
Temperature: 13.0°C (55°F)
Dewpoint: 11.0°C (52°F) [RH = 88%]
Pressure (altimeter): 29.91 inches Hg (1013.0 mb)
Winds: from the NNE (30 degrees) at 6 MPH (5 knots; 2.6 m/s)
Visibility: 3 miles ( 5 km)
Ceiling: 1000 feet AGL
Clouds: few clouds at 400 feet AGL
scattered clouds at 600 feet AGL
broken clouds at 1000 feet AGL
Weather: BCFG BR  (patches of fog, mist)

METAR text: RJEB 240100Z 03005KT 350V090 9999 FEW030 14/11 Q1012
Conditions at: RJEB (MONBETSU AIRPORT, JP) observed 0100 UTC 24 June 2019
Temperature: 14.0°C (57°F)
Dewpoint: 11.0°C (52°F) [RH = 82%]
Pressure (altimeter): 29.88 inches Hg (1012.0 mb)
Winds: from the NNE (30 degrees) at 6 MPH (5 knots; 2.6 m/s)
Visibility: 6 or more miles (10+ km)
Ceiling: at least 12,000 feet AGL
Clouds: few clouds at 3000 feet AGL
Weather: no significant weather observed at this time